Kule-3 — TC8580 — position and weather

sailwx.info

Track history (hours):
 
Tides and Currents Weather Stations Pressure Air Temp Water Temp Dewpoint Dewpoint Depression Visibility Wind Speed Wind Dir Waves Ship Positions

Kule-3

Last reported at 2017-Sep-04 13:27 UTC. Time now 2017-Sep-22 02:55 UTC.
Position N 36°30' E 032°03'.
Warning: this ship's position is 17 days out of date.

Length 12 m.

Type: Passenger vessel. MMSI: 271041160.

Date/timePositionNaut miles runAvg speedWind from/ knotsBaromVisibWave heightAir tempDewpointWater temp
2017-Sep-04 13:27N 36°30' E 032°03'1 2.3
2017-Sep-04 12:57N 36°29' E 032°04'2 5.4
2017-Sep-04 12:30N 36°27' E 032°06'3 4.6
2017-Sep-04 11:56N 36°26' E 032°09'0 0.0
2017-Sep-04 11:20N 36°26' E 032°09'0 0.0
2017-Sep-04 10:59N 36°26' E 032°09'0 0.0
2017-Sep-04 10:26N 36°26' E 032°09'0 0.0
2017-Sep-04 09:56N 36°26' E 032°09'1 2.4
2017-Sep-04 09:30N 36°27' E 032°08'6 0.3
2017-Sep-03 14:00N 36°31' E 032°02'  
Track history (hours):
 
Tides and Currents Weather Stations Pressure Air Temp Water Temp Dewpoint Dewpoint Depression Visibility Wind Speed Wind Dir Waves Ship Positions

Kule-3

Last reported at 2017-Sep-04 13:27 UTC. Time now 2017-Sep-22 02:55 UTC.
Position N 36°30' E 032°03'.
Warning: this ship's position is 17 days out of date.

Length 12 m.

Type: Passenger vessel. MMSI: 271041160.

Date/timePositionNaut miles runAvg speedWind from/ knotsBaromVisibWave heightAir tempDewpointWater temp
2017-Sep-04 13:27N 36°30' E 032°03'1 2.3
2017-Sep-04 12:57N 36°29' E 032°04'2 5.4
2017-Sep-04 12:30N 36°27' E 032°06'3 4.6
2017-Sep-04 11:56N 36°26' E 032°09'0 0.0
2017-Sep-04 11:20N 36°26' E 032°09'0 0.0
2017-Sep-04 10:59N 36°26' E 032°09'0 0.0
2017-Sep-04 10:26N 36°26' E 032°09'0 0.0
2017-Sep-04 09:56N 36°26' E 032°09'1 2.4
2017-Sep-04 09:30N 36°27' E 032°08'6 0.3
2017-Sep-03 14:00N 36°31' E 032°02'  

Dump ship's entire track history